sensor_id;sensor_type;location;lat;lon;timestamp;P1;P2;P0
55449;PMS5003;41318;58.724;50.180;2023-04-03T00:00:07;57.80;49.20;34.40
55449;PMS5003;41318;58.724;50.180;2023-04-03T00:02:38;54.60;45.40;29.40
55449;PMS5003;41318;58.724;50.180;2023-04-03T00:05:10;59.00;48.20;29.60
55449;PMS5003;41318;58.724;50.180;2023-04-03T00:07:41;49.25;40.75;25.25
55449;PMS5003;41318;58.724;50.180;2023-04-03T00:10:12;38.00;36.25;26.00
55449;PMS5003;41318;58.724;50.180;2023-04-03T00:12:44;33.40;31.80;23.20
55449;PMS5003;41318;58.724;50.180;2023-04-03T00:15:14;38.75;38.00;27.50
55449;PMS5003;41318;58.724;50.180;2023-04-03T00:17:45;44.60;41.00;29.20
55449;PMS5003;41318;58.724;50.180;2023-04-03T00:20:16;58.25;49.25;34.25
55449;PMS5003;41318;58.724;50.180;2023-04-03T00:22:48;64.60;55.00;37.80
55449;PMS5003;41318;58.724;50.180;2023-04-03T00:25:19;34.80;33.80;25.00
55449;PMS5003;41318;58.724;50.180;2023-04-03T00:27:50;43.80;41.20;27.80
55449;PMS5003;41318;58.724;50.180;2023-04-03T00:30:21;48.40;41.60;27.00
55449;PMS5003;41318;58.724;50.180;2023-04-03T00:32:53;41.60;39.00;27.00
55449;PMS5003;41318;58.724;50.180;2023-04-03T00:35:42;18.60;18.60;18.00
55449;PMS5003;41318;58.724;50.180;2023-04-03T00:38:13;34.20;32.40;24.80
55449;PMS5003;41318;58.724;50.180;2023-04-03T00:40:45;31.60;31.20;22.60
55449;PMS5003;41318;58.724;50.180;2023-04-03T00:45:51;36.00;35.40;23.00
55449;PMS5003;41318;58.724;50.180;2023-04-03T00:48:30;39.80;38.00;25.00
55449;PMS5003;41318;58.724;50.180;2023-04-03T00:51:03;34.20;33.80;24.00
55449;PMS5003;41318;58.724;50.180;2023-04-03T00:53:37;31.20;31.00;19.40
55449;PMS5003;41318;58.724;50.180;2023-04-03T00:56:10;38.40;38.20;26.00
55449;PMS5003;41318;58.724;50.180;2023-04-03T00:58:44;35.20;33.80;20.40
55449;PMS5003;41318;58.724;50.180;2023-04-03T01:01:35;35.40;35.00;21.40
55449;PMS5003;41318;58.724;50.180;2023-04-03T01:04:25;33.20;32.80;21.00
55449;PMS5003;41318;58.724;50.180;2023-04-03T01:06:58;32.20;32.20;24.20
55449;PMS5003;41318;58.724;50.180;2023-04-03T01:09:30;36.20;35.20;24.80
55449;PMS5003;41318;58.724;50.180;2023-04-03T01:15:07;39.20;36.00;23.80
55449;PMS5003;41318;58.724;50.180;2023-04-03T01:17:39;43.60;39.60;23.40
55449;PMS5003;41318;58.724;50.180;2023-04-03T01:25:58;49.60;44.40;27.80
55449;PMS5003;41318;58.724;50.180;2023-04-03T01:28:31;78.00;63.20;36.60
55449;PMS5003;41318;58.724;50.180;2023-04-03T01:33:36;96.80;83.00;48.40
55449;PMS5003;41318;58.724;50.180;2023-04-03T01:36:28;82.20;66.60;41.20
55449;PMS5003;41318;58.724;50.180;2023-04-03T01:38:59;67.40;55.20;35.00
55449;PMS5003;41318;58.724;50.180;2023-04-03T01:41:31;35.20;33.80;23.60
55449;PMS5003;41318;58.724;50.180;2023-04-03T01:44:13;27.80;27.60;22.80
55449;PMS5003;41318;58.724;50.180;2023-04-03T01:46:44;32.80;32.80;21.60
55449;PMS5003;41318;58.724;50.180;2023-04-03T01:49:16;22.00;22.00;14.00
55449;PMS5003;41318;58.724;50.180;2023-04-03T01:51:47;26.00;26.00;19.60
55449;PMS5003;41318;58.724;50.180;2023-04-03T01:54:18;32.60;29.40;21.80
55449;PMS5003;41318;58.724;50.180;2023-04-03T01:56:49;31.00;28.20;18.60
55449;PMS5003;41318;58.724;50.180;2023-04-03T01:59:22;29.00;26.60;17.40
55449;PMS5003;41318;58.724;50.180;2023-04-03T02:01:53;33.40;33.40;17.40
55449;PMS5003;41318;58.724;50.180;2023-04-03T02:04:24;45.60;42.00;27.40
55449;PMS5003;41318;58.724;50.180;2023-04-03T02:06:56;49.40;42.80;28.20
55449;PMS5003;41318;58.724;50.180;2023-04-03T02:09:26;33.25;31.00;18.00
55449;PMS5003;41318;58.724;50.180;2023-04-03T02:11:57;33.75;33.25;23.00
55449;PMS5003;41318;58.724;50.180;2023-04-03T02:14:28;29.20;28.40;18.00
55449;PMS5003;41318;58.724;50.180;2023-04-03T02:17:20;22.60;22.60;15.60
55449;PMS5003;41318;58.724;50.180;2023-04-03T02:19:51;21.20;20.60;16.00
55449;PMS5003;41318;58.724;50.180;2023-04-03T02:22:22;22.00;22.00;18.00
55449;PMS5003;41318;58.724;50.180;2023-04-03T02:24:53;35.25;32.75;25.75
55449;PMS5003;41318;58.724;50.180;2023-04-03T02:27:24;41.60;39.60;24.00
55449;PMS5003;41318;58.724;50.180;2023-04-03T02:29:55;45.50;41.50;28.00
55449;PMS5003;41318;58.724;50.180;2023-04-03T02:32:26;37.00;37.00;26.00
55449;PMS5003;41318;58.724;50.180;2023-04-03T02:34:57;38.75;36.00;25.25
55449;PMS5003;41318;58.724;50.180;2023-04-03T02:37:28;39.40;36.60;24.00
55449;PMS5003;41318;58.724;50.180;2023-04-03T02:40:00;31.40;31.00;23.00
55449;PMS5003;41318;58.724;50.180;2023-04-03T02:42:33;25.60;25.20;18.60
55449;PMS5003;41318;58.724;50.180;2023-04-03T02:45:23;21.20;21.20;15.20
55449;PMS5003;41318;58.724;50.180;2023-04-03T02:48:12;28.60;27.60;19.40
55449;PMS5003;41318;58.724;50.180;2023-04-03T02:50:43;23.00;21.00;15.00
55449;PMS5003;41318;58.724;50.180;2023-04-03T02:53:32;18.40;18.20;14.80
55449;PMS5003;41318;58.724;50.180;2023-04-03T02:56:08;22.60;18.20;11.00
55449;PMS5003;41318;58.724;50.180;2023-04-03T02:58:39;33.75;30.50;22.25
55449;PMS5003;41318;58.724;50.180;2023-04-03T03:01:14;38.20;37.40;29.60
55449;PMS5003;41318;58.724;50.180;2023-04-03T03:03:45;14.00;14.00;10.50
55449;PMS5003;41318;58.724;50.180;2023-04-03T03:06:16;12.25;12.25;10.00
55449;PMS5003;41318;58.724;50.180;2023-04-03T03:08:47;14.20;14.20;8.40
55449;PMS5003;41318;58.724;50.180;2023-04-03T03:11:18;16.80;16.60;12.00
55449;PMS5003;41318;58.724;50.180;2023-04-03T03:13:50;14.00;14.00;11.00
55449;PMS5003;41318;58.724;50.180;2023-04-03T03:16:21;14.20;14.20;11.00
55449;PMS5003;41318;58.724;50.180;2023-04-03T03:18:52;15.75;15.75;11.50
55449;PMS5003;41318;58.724;50.180;2023-04-03T03:21:23;22.40;22.40;15.60
55449;PMS5003;41318;58.724;50.180;2023-04-03T03:23:54;21.25;21.00;13.50
55449;PMS5003;41318;58.724;50.180;2023-04-03T03:26:43;41.60;39.80;26.80
55449;PMS5003;41318;58.724;50.180;2023-04-03T03:29:15;42.60;39.00;26.60
55449;PMS5003;41318;58.724;50.180;2023-04-03T03:31:47;47.20;42.20;28.20
55449;PMS5003;41318;58.724;50.180;2023-04-03T03:34:18;54.60;46.00;30.80
55449;PMS5003;41318;58.724;50.180;2023-04-03T03:36:49;47.00;42.50;28.25
55449;PMS5003;41318;58.724;50.180;2023-04-03T03:39:20;42.00;39.50;26.75
55449;PMS5003;41318;58.724;50.180;2023-04-03T03:41:51;41.20;37.60;26.20
55449;PMS5003;41318;58.724;50.180;2023-04-03T03:44:24;39.00;37.00;25.00
55449;PMS5003;41318;58.724;50.180;2023-04-03T03:46:56;43.80;40.40;27.40
55449;PMS5003;41318;58.724;50.180;2023-04-03T03:49:27;61.00;51.50;34.75
55449;PMS5003;41318;58.724;50.180;2023-04-03T03:51:58;65.50;53.75;37.00
55449;PMS5003;41318;58.724;50.180;2023-04-03T03:54:32;65.20;55.20;38.60
55449;PMS5003;41318;58.724;50.180;2023-04-03T03:57:03;75.60;59.40;39.80
55449;PMS5003;41318;58.724;50.180;2023-04-03T03:59:35;67.00;54.80;36.60
55449;PMS5003;41318;58.724;50.180;2023-04-03T04:02:07;69.60;55.00;36.00
55449;PMS5003;41318;58.724;50.180;2023-04-03T04:04:39;57.80;49.60;32.00
55449;PMS5003;41318;58.724;50.180;2023-04-03T04:07:10;75.20;60.80;39.00
55449;PMS5003;41318;58.724;50.180;2023-04-03T04:09:43;76.60;62.00;38.20
55449;PMS5003;41318;58.724;50.180;2023-04-03T04:12:14;57.60;49.80;35.00
55449;PMS5003;41318;58.724;50.180;2023-04-03T04:14:46;68.40;57.20;37.00
55449;PMS5003;41318;58.724;50.180;2023-04-03T04:17:20;70.80;56.40;36.20
55449;PMS5003;41318;58.724;50.180;2023-04-03T04:19:53;61.60;51.80;35.80
55449;PMS5003;41318;58.724;50.180;2023-04-03T04:22:25;60.00;51.40;35.00
55449;PMS5003;41318;58.724;50.180;2023-04-03T04:24:58;57.00;48.60;34.60
55449;PMS5003;41318;58.724;50.180;2023-04-03T04:27:30;47.80;41.20;29.40
55449;PMS5003;41318;58.724;50.180;2023-04-03T04:30:02;46.80;40.20;27.40
55449;PMS5003;41318;58.724;50.180;2023-04-03T04:32:36;32.40;32.40;21.20
55449;PMS5003;41318;58.724;50.180;2023-04-03T04:35:08;44.60;41.00;27.20
55449;PMS5003;41318;58.724;50.180;2023-04-03T04:37:45;35.00;34.00;20.80
55449;PMS5003;41318;58.724;50.180;2023-04-03T04:40:18;42.20;39.60;25.80
55449;PMS5003;41318;58.724;50.180;2023-04-03T04:42:51;27.60;26.60;18.60
55449;PMS5003;41318;58.724;50.180;2023-04-03T04:45:22;31.20;30.20;21.40
55449;PMS5003;41318;58.724;50.180;2023-04-03T04:47:56;27.40;27.40;22.40
55449;PMS5003;41318;58.724;50.180;2023-04-03T04:50:29;31.20;31.00;22.60
55449;PMS5003;41318;58.724;50.180;2023-04-03T04:53:01;24.20;24.20;17.40
55449;PMS5003;41318;58.724;50.180;2023-04-03T04:55:33;29.00;28.40;20.60
55449;PMS5003;41318;58.724;50.180;2023-04-03T04:58:05;23.20;23.20;17.20
55449;PMS5003;41318;58.724;50.180;2023-04-03T05:01:02;27.80;27.80;21.40
55449;PMS5003;41318;58.724;50.180;2023-04-03T05:03:35;28.40;27.20;18.40
55449;PMS5003;41318;58.724;50.180;2023-04-03T05:06:07;31.00;26.40;20.80
55449;PMS5003;41318;58.724;50.180;2023-04-03T05:08:57;29.80;29.20;20.20
55449;PMS5003;41318;58.724;50.180;2023-04-03T05:11:46;28.80;28.80;18.00
55449;PMS5003;41318;58.724;50.180;2023-04-03T05:14:20;34.00;34.00;23.40
55449;PMS5003;41318;58.724;50.180;2023-04-03T05:16:52;39.80;38.60;25.00
55449;PMS5003;41318;58.724;50.180;2023-04-03T05:19:27;42.80;39.80;28.40
55449;PMS5003;41318;58.724;50.180;2023-04-03T05:22:01;42.60;39.80;28.00
55449;PMS5003;41318;58.724;50.180;2023-04-03T05:24:34;46.00;41.00;27.20
55449;PMS5003;41318;58.724;50.180;2023-04-03T05:27:08;40.40;38.20;25.40
55449;PMS5003;41318;58.724;50.180;2023-04-03T05:29:44;40.40;37.00;24.00
55449;PMS5003;41318;58.724;50.180;2023-04-03T05:32:19;48.40;42.80;28.20
55449;PMS5003;41318;58.724;50.180;2023-04-03T05:34:55;31.40;31.20;20.80
55449;PMS5003;41318;58.724;50.180;2023-04-03T05:37:28;27.20;27.20;22.40
55449;PMS5003;41318;58.724;50.180;2023-04-03T05:40:02;27.60;27.00;19.80
55449;PMS5003;41318;58.724;50.180;2023-04-03T05:42:36;24.20;24.00;18.60
55449;PMS5003;41318;58.724;50.180;2023-04-03T05:45:27;31.20;30.40;18.60
55449;PMS5003;41318;58.724;50.180;2023-04-03T05:47:59;20.80;20.80;17.20
55449;PMS5003;41318;58.724;50.180;2023-04-03T05:50:33;29.20;28.60;19.20
55449;PMS5003;41318;58.724;50.180;2023-04-03T05:53:26;31.60;30.40;23.00
55449;PMS5003;41318;58.724;50.180;2023-04-03T05:56:00;34.00;31.20;21.80
55449;PMS5003;41318;58.724;50.180;2023-04-03T05:58:39;35.80;34.80;23.40
55449;PMS5003;41318;58.724;50.180;2023-04-03T06:01:12;52.60;44.00;28.40
55449;PMS5003;41318;58.724;50.180;2023-04-03T06:03:45;55.80;46.60;27.00
55449;PMS5003;41318;58.724;50.180;2023-04-03T06:06:18;55.40;47.00;29.40
55449;PMS5003;41318;58.724;50.180;2023-04-03T06:08:51;53.80;46.20;27.20
55449;PMS5003;41318;58.724;50.180;2023-04-03T06:11:42;41.20;38.40;26.00
55449;PMS5003;41318;58.724;50.180;2023-04-03T06:14:15;28.80;27.60;16.80
55449;PMS5003;41318;58.724;50.180;2023-04-03T06:16:46;31.00;30.40;21.60
55449;PMS5003;41318;58.724;50.180;2023-04-03T06:19:18;35.00;33.40;22.80
55449;PMS5003;41318;58.724;50.180;2023-04-03T06:21:55;20.20;20.20;14.60
55449;PMS5003;41318;58.724;50.180;2023-04-03T06:24:29;25.80;22.80;16.40
55449;PMS5003;41318;58.724;50.180;2023-04-03T06:27:01;24.40;23.80;17.60
55449;PMS5003;41318;58.724;50.180;2023-04-03T06:29:34;18.20;18.20;13.00
55449;PMS5003;41318;58.724;50.180;2023-04-03T06:32:06;18.00;15.00;9.00
55449;PMS5003;41318;58.724;50.180;2023-04-03T06:34:39;16.60;16.60;12.20
55449;PMS5003;41318;58.724;50.180;2023-04-03T06:37:21;15.20;15.20;11.20
55449;PMS5003;41318;58.724;50.180;2023-04-03T06:39:53;14.80;14.80;10.60
55449;PMS5003;41318;58.724;50.180;2023-04-03T06:42:26;17.60;17.60;10.80
55449;PMS5003;41318;58.724;50.180;2023-04-03T06:45:05;25.80;25.80;17.60
55449;PMS5003;41318;58.724;50.180;2023-04-03T06:47:37;29.40;29.20;19.60
55449;PMS5003;41318;58.724;50.180;2023-04-03T06:50:28;32.20;31.40;19.40
55449;PMS5003;41318;58.724;50.180;2023-04-03T06:53:00;16.20;16.20;12.60
55449;PMS5003;41318;58.724;50.180;2023-04-03T06:55:33;21.00;21.00;15.20
55449;PMS5003;41318;58.724;50.180;2023-04-03T06:58:05;18.40;18.00;12.00
55449;PMS5003;41318;58.724;50.180;2023-04-03T07:00:37;11.80;11.80;10.20
55449;PMS5003;41318;58.724;50.180;2023-04-03T07:03:26;18.40;17.80;13.20
55449;PMS5003;41318;58.724;50.180;2023-04-03T07:05:57;20.50;20.50;15.75
55449;PMS5003;41318;58.724;50.180;2023-04-03T07:08:28;18.80;18.60;12.20
55449;PMS5003;41318;58.724;50.180;2023-04-03T07:10:59;12.75;12.75;9.75
55449;PMS5003;41318;58.724;50.180;2023-04-03T07:13:30;14.75;14.25;11.50
55449;PMS5003;41318;58.724;50.180;2023-04-03T07:16:20;13.50;13.50;10.50
55449;PMS5003;41318;58.724;50.180;2023-04-03T07:18:51;13.75;13.75;10.00
55449;PMS5003;41318;58.724;50.180;2023-04-03T07:21:40;9.50;9.50;6.50
55449;PMS5003;41318;58.724;50.180;2023-04-03T07:24:30;8.25;8.25;6.25
55449;PMS5003;41318;58.724;50.180;2023-04-03T07:27:01;10.00;10.00;7.00
55449;PMS5003;41318;58.724;50.180;2023-04-03T07:29:34;11.00;11.00;7.00
55449;PMS5003;41318;58.724;50.180;2023-04-03T07:32:05;8.75;8.75;7.50
55449;PMS5003;41318;58.724;50.180;2023-04-03T07:34:37;8.25;8.25;6.00
55449;PMS5003;41318;58.724;50.180;2023-04-03T07:37:07;12.00;12.00;7.33
55449;PMS5003;41318;58.724;50.180;2023-04-03T07:39:39;12.25;12.25;9.50
55449;PMS5003;41318;58.724;50.180;2023-04-03T07:42:28;7.00;7.00;4.00
55449;PMS5003;41318;58.724;50.180;2023-04-03T07:45:00;23.20;22.60;15.00
55449;PMS5003;41318;58.724;50.180;2023-04-03T07:47:31;82.00;58.80;33.00
55449;PMS5003;41318;58.724;50.180;2023-04-03T07:50:02;21.80;21.80;16.00
55449;PMS5003;41318;58.724;50.180;2023-04-03T07:52:34;10.25;10.25;7.50
55449;PMS5003;41318;58.724;50.180;2023-04-03T07:55:05;15.50;14.50;10.75
55449;PMS5003;41318;58.724;50.180;2023-04-03T07:57:36;12.50;12.25;8.00
55449;PMS5003;41318;58.724;50.180;2023-04-03T08:00:08;13.00;13.00;9.75
55449;PMS5003;41318;58.724;50.180;2023-04-03T08:02:45;43.20;36.80;24.80
55449;PMS5003;41318;58.724;50.180;2023-04-03T08:05:21;14.60;14.60;12.00
55449;PMS5003;41318;58.724;50.180;2023-04-03T08:07:52;17.80;17.80;15.00
55449;PMS5003;41318;58.724;50.180;2023-04-03T08:10:23;15.00;15.00;12.00
55449;PMS5003;41318;58.724;50.180;2023-04-03T08:12:53;14.67;14.67;11.33
55449;PMS5003;41318;58.724;50.180;2023-04-03T08:15:24;7.67;7.67;6.00
55449;PMS5003;41318;58.724;50.180;2023-04-03T08:17:55;26.00;21.20;16.00
55449;PMS5003;41318;58.724;50.180;2023-04-03T08:20:27;21.67;21.67;15.33
55449;PMS5003;41318;58.724;50.180;2023-04-03T08:22:57;14.50;14.50;9.50
55449;PMS5003;41318;58.724;50.180;2023-04-03T08:25:28;16.00;15.67;9.33
55449;PMS5003;41318;58.724;50.180;2023-04-03T08:28:00;10.50;10.50;6.50
55449;PMS5003;41318;58.724;50.180;2023-04-03T08:30:32;12.25;12.25;9.25
55449;PMS5003;41318;58.724;50.180;2023-04-03T08:33:03;8.25;8.25;7.00
55449;PMS5003;41318;58.724;50.180;2023-04-03T08:35:38;9.00;9.00;7.00
55449;PMS5003;41318;58.724;50.180;2023-04-03T08:38:09;9.75;9.50;6.75
55449;PMS5003;41318;58.724;50.180;2023-04-03T08:40:40;5.25;5.25;3.00
55449;PMS5003;41318;58.724;50.180;2023-04-03T08:46:01;10.00;10.00;8.00
55449;PMS5003;41318;58.724;50.180;2023-04-03T08:48:39;0.00;0.00;0.00
55449;PMS5003;41318;58.724;50.180;2023-04-03T08:51:15;9.50;9.50;7.75
55449;PMS5003;41318;58.724;50.180;2023-04-03T08:54:06;9.00;9.00;7.50
55449;PMS5003;41318;58.724;50.180;2023-04-03T08:56:39;8.00;8.00;6.00
55449;PMS5003;41318;58.724;50.180;2023-04-03T08:59:12;7.75;7.75;6.00
55449;PMS5003;41318;58.724;50.180;2023-04-03T09:01:44;9.25;9.25;7.00
55449;PMS5003;41318;58.724;50.180;2023-04-03T09:04:15;12.00;12.00;10.00
55449;PMS5003;41318;58.724;50.180;2023-04-03T09:06:52;8.75;8.50;6.50
55449;PMS5003;41318;58.724;50.180;2023-04-03T09:09:29;7.25;7.25;5.25
55449;PMS5003;41318;58.724;50.180;2023-04-03T09:12:25;3.75;3.75;3.50
55449;PMS5003;41318;58.724;50.180;2023-04-03T09:22:48;9.75;9.75;7.00
55449;PMS5003;41318;58.724;50.180;2023-04-03T09:27:52;10.75;10.75;8.00
55449;PMS5003;41318;58.724;50.180;2023-04-03T09:30:24;9.00;9.00;6.75
55449;PMS5003;41318;58.724;50.180;2023-04-03T09:32:56;9.75;9.75;7.00
55449;PMS5003;41318;58.724;50.180;2023-04-03T09:38:15;10.00;10.00;8.00
55449;PMS5003;41318;58.724;50.180;2023-04-03T09:41:06;10.50;10.50;9.00
55449;PMS5003;41318;58.724;50.180;2023-04-03T09:43:56;9.50;9.50;7.25
55449;PMS5003;41318;58.724;50.180;2023-04-03T09:49:02;9.50;9.50;7.50
55449;PMS5003;41318;58.724;50.180;2023-04-03T09:51:34;7.25;7.25;6.00
55449;PMS5003;41318;58.724;50.180;2023-04-03T09:54:24;9.50;9.50;6.50
55449;PMS5003;41318;58.724;50.180;2023-04-03T09:56:57;11.00;11.00;9.00
55449;PMS5003;41318;58.724;50.180;2023-04-03T09:59:31;7.75;7.75;6.00
55449;PMS5003;41318;58.724;50.180;2023-04-03T10:02:04;11.00;11.00;9.50
55449;PMS5003;41318;58.724;50.180;2023-04-03T10:04:44;7.75;7.75;6.50
55449;PMS5003;41318;58.724;50.180;2023-04-03T10:07:57;7.00;7.00;6.00
55449;PMS5003;41318;58.724;50.180;2023-04-03T10:10:17;9.75;9.75;8.00
55449;PMS5003;41318;58.724;50.180;2023-04-03T10:12:48;9.25;9.25;7.50
55449;PMS5003;41318;58.724;50.180;2023-04-03T10:15:19;10.00;10.00;8.25
55449;PMS5003;41318;58.724;50.180;2023-04-03T10:18:16;7.00;7.00;5.50
55449;PMS5003;41318;58.724;50.180;2023-04-03T10:20:52;25.75;25.00;16.25
55449;PMS5003;41318;58.724;50.180;2023-04-03T10:23:27;10.00;9.75;7.50
55449;PMS5003;41318;58.724;50.180;2023-04-03T10:26:28;7.75;7.75;6.00
55449;PMS5003;41318;58.724;50.180;2023-04-03T10:31:30;7.00;7.00;6.00
55449;PMS5003;41318;58.724;50.180;2023-04-03T10:34:05;10.00;10.00;7.00
55449;PMS5003;41318;58.724;50.180;2023-04-03T10:39:17;14.67;14.67;9.67
55449;PMS5003;41318;58.724;50.180;2023-04-03T10:46:56;7.75;7.75;6.00
55449;PMS5003;41318;58.724;50.180;2023-04-03T10:52:17;8.00;8.00;6.25
55449;PMS5003;41318;58.724;50.180;2023-04-03T10:54:55;4.75;4.75;4.00
55449;PMS5003;41318;58.724;50.180;2023-04-03T10:57:29;5.75;5.75;5.00
55449;PMS5003;41318;58.724;50.180;2023-04-03T11:00:20;3.25;3.25;3.00
55449;PMS5003;41318;58.724;50.180;2023-04-03T11:07:54;5.00;5.00;4.00
55449;PMS5003;41318;58.724;50.180;2023-04-03T11:10:45;3.00;3.00;2.50
55449;PMS5003;41318;58.724;50.180;2023-04-03T11:13:19;5.50;5.25;4.25
55449;PMS5003;41318;58.724;50.180;2023-04-03T11:15:56;1.75;1.75;1.50
55449;PMS5003;41318;58.724;50.180;2023-04-03T11:18:49;6.00;6.00;4.25
55449;PMS5003;41318;58.724;50.180;2023-04-03T11:23:57;5.00;5.00;4.00
55449;PMS5003;41318;58.724;50.180;2023-04-03T11:26:32;4.50;4.50;3.00
55449;PMS5003;41318;58.724;50.180;2023-04-03T11:29:29;4.50;4.50;3.25
55449;PMS5003;41318;58.724;50.180;2023-04-03T11:34:52;5.00;5.00;4.00
55449;PMS5003;41318;58.724;50.180;2023-04-03T11:37:46;6.00;5.25;4.00
55449;PMS5003;41318;58.724;50.180;2023-04-03T11:46:03;4.75;4.75;4.00
55449;PMS5003;41318;58.724;50.180;2023-04-03T11:53:43;6.25;6.25;4.00
55449;PMS5003;41318;58.724;50.180;2023-04-03T12:01:45;10.75;10.75;8.25
55449;PMS5003;41318;58.724;50.180;2023-04-03T12:04:17;10.75;10.75;6.00
55449;PMS5003;41318;58.724;50.180;2023-04-03T12:09:27;7.75;7.75;6.25
55449;PMS5003;41318;58.724;50.180;2023-04-03T12:11:59;6.00;6.00;4.50
55449;PMS5003;41318;58.724;50.180;2023-04-03T12:14:31;6.75;6.75;5.75
55449;PMS5003;41318;58.724;50.180;2023-04-03T12:17:22;7.75;7.75;5.00
55449;PMS5003;41318;58.724;50.180;2023-04-03T12:19:54;11.50;11.50;9.00
55449;PMS5003;41318;58.724;50.180;2023-04-03T12:22:25;1.33;1.33;1.33
55449;PMS5003;41318;58.724;50.180;2023-04-03T12:24:56;5.50;5.50;4.00
55449;PMS5003;41318;58.724;50.180;2023-04-03T12:27:28;11.00;11.00;8.00
55449;PMS5003;41318;58.724;50.180;2023-04-03T12:51:22;10.00;10.00;7.00
55449;PMS5003;41318;58.724;50.180;2023-04-03T12:54:03;5.00;5.00;4.50
55449;PMS5003;41318;58.724;50.180;2023-04-03T12:56:36;5.75;5.75;4.25
55449;PMS5003;41318;58.724;50.180;2023-04-03T13:02:27;9.75;8.75;6.25
55449;PMS5003;41318;58.724;50.180;2023-04-03T13:04:58;5.50;5.50;4.00
55449;PMS5003;41318;58.724;50.180;2023-04-03T13:07:31;4.00;4.00;3.00
55449;PMS5003;41318;58.724;50.180;2023-04-03T13:10:13;9.75;9.75;5.75
55449;PMS5003;41318;58.724;50.180;2023-04-03T13:12:46;5.25;5.25;4.25
55449;PMS5003;41318;58.724;50.180;2023-04-03T13:15:25;5.00;5.00;4.00
55449;PMS5003;41318;58.724;50.180;2023-04-03T13:17:56;6.75;6.75;4.50
55449;PMS5003;41318;58.724;50.180;2023-04-03T13:20:28;5.25;5.25;4.00
55449;PMS5003;41318;58.724;50.180;2023-04-03T13:23:04;18.75;17.50;11.75
55449;PMS5003;41318;58.724;50.180;2023-04-03T13:25:37;18.50;18.00;11.75
55449;PMS5003;41318;58.724;50.180;2023-04-03T13:28:15;14.75;14.75;10.75
55449;PMS5003;41318;58.724;50.180;2023-04-03T13:31:29;9.00;9.00;6.50
55449;PMS5003;41318;58.724;50.180;2023-04-03T13:36:44;9.75;9.75;7.75
55449;PMS5003;41318;58.724;50.180;2023-04-03T13:39:35;10.00;10.00;8.50
55449;PMS5003;41318;58.724;50.180;2023-04-03T13:42:20;7.75;7.75;7.00
55449;PMS5003;41318;58.724;50.180;2023-04-03T13:48:09;4.50;4.50;4.00
55449;PMS5003;41318;58.724;50.180;2023-04-03T13:53:28;4.00;4.00;3.00
55449;PMS5003;41318;58.724;50.180;2023-04-03T13:56:04;6.67;5.67;4.67
55449;PMS5003;41318;58.724;50.180;2023-04-03T13:58:59;12.00;12.00;8.75
55449;PMS5003;41318;58.724;50.180;2023-04-03T14:01:41;6.75;6.75;6.00
55449;PMS5003;41318;58.724;50.180;2023-04-03T14:04:44;5.75;5.75;4.50
55449;PMS5003;41318;58.724;50.180;2023-04-03T14:07:22;4.25;4.25;4.00
55449;PMS5003;41318;58.724;50.180;2023-04-03T14:09:54;8.00;8.00;6.50
55449;PMS5003;41318;58.724;50.180;2023-04-03T14:12:32;6.75;6.75;5.50
55449;PMS5003;41318;58.724;50.180;2023-04-03T14:15:06;8.50;8.50;6.50
55449;PMS5003;41318;58.724;50.180;2023-04-03T14:17:38;10.25;8.50;5.00
55449;PMS5003;41318;58.724;50.180;2023-04-03T14:20:14;16.50;16.50;11.25
55449;PMS5003;41318;58.724;50.180;2023-04-03T14:23:03;8.50;8.50;7.00
55449;PMS5003;41318;58.724;50.180;2023-04-03T14:25:34;21.67;21.67;15.00
55449;PMS5003;41318;58.724;50.180;2023-04-03T14:28:16;9.00;9.00;7.67
55449;PMS5003;41318;58.724;50.180;2023-04-03T14:30:49;13.25;12.50;9.75
55449;PMS5003;41318;58.724;50.180;2023-04-03T14:33:20;7.50;7.50;5.75
55449;PMS5003;41318;58.724;50.180;2023-04-03T14:35:52;24.25;23.50;13.50
55449;PMS5003;41318;58.724;50.180;2023-04-03T14:40:54;25.25;24.75;15.25
55449;PMS5003;41318;58.724;50.180;2023-04-03T14:43:24;28.80;27.60;15.60
55449;PMS5003;41318;58.724;50.180;2023-04-03T14:45:56;12.25;11.75;7.25
55449;PMS5003;41318;58.724;50.180;2023-04-03T14:48:27;19.25;19.00;11.25
55449;PMS5003;41318;58.724;50.180;2023-04-03T14:51:00;17.75;17.00;12.00
55449;PMS5003;41318;58.724;50.180;2023-04-03T14:53:31;11.00;11.00;8.00
55449;PMS5003;41318;58.724;50.180;2023-04-03T14:56:04;24.50;22.25;13.25
55449;PMS5003;41318;58.724;50.180;2023-04-03T14:58:55;19.50;16.50;10.00
55449;PMS5003;41318;58.724;50.180;2023-04-03T15:01:27;21.40;21.40;15.20
55449;PMS5003;41318;58.724;50.180;2023-04-03T15:03:58;21.75;21.75;13.00
55449;PMS5003;41318;58.724;50.180;2023-04-03T15:06:29;10.33;9.67;7.67
55449;PMS5003;41318;58.724;50.180;2023-04-03T15:09:00;6.25;6.25;5.75
55449;PMS5003;41318;58.724;50.180;2023-04-03T15:11:30;5.00;5.00;4.33
55449;PMS5003;41318;58.724;50.180;2023-04-03T15:14:01;8.00;8.00;6.00
55449;PMS5003;41318;58.724;50.180;2023-04-03T15:16:32;7.75;7.75;6.00
55449;PMS5003;41318;58.724;50.180;2023-04-03T15:19:03;13.00;13.00;9.33
55449;PMS5003;41318;58.724;50.180;2023-04-03T15:21:34;15.67;14.00;8.00
55449;PMS5003;41318;58.724;50.180;2023-04-03T15:24:05;12.00;12.00;7.00
55449;PMS5003;41318;58.724;50.180;2023-04-03T15:26:36;9.75;9.50;6.00
55449;PMS5003;41318;58.724;50.180;2023-04-03T15:29:08;8.00;8.00;6.00
55449;PMS5003;41318;58.724;50.180;2023-04-03T15:31:57;7.50;7.50;6.50
55449;PMS5003;41318;58.724;50.180;2023-04-03T15:34:28;9.00;9.00;7.33
55449;PMS5003;41318;58.724;50.180;2023-04-03T15:37:00;5.50;5.50;4.50
55449;PMS5003;41318;58.724;50.180;2023-04-03T15:39:30;6.00;6.00;5.00
55449;PMS5003;41318;58.724;50.180;2023-04-03T15:42:01;10.25;8.00;6.75
55449;PMS5003;41318;58.724;50.180;2023-04-03T15:44:36;11.00;11.00;8.00
55449;PMS5003;41318;58.724;50.180;2023-04-03T15:47:07;5.67;5.67;5.00
55449;PMS5003;41318;58.724;50.180;2023-04-03T15:49:38;13.25;13.25;8.50
55449;PMS5003;41318;58.724;50.180;2023-04-03T15:52:28;8.00;8.00;6.00
55449;PMS5003;41318;58.724;50.180;2023-04-03T15:54:59;9.33;8.00;5.67
55449;PMS5003;41318;58.724;50.180;2023-04-03T15:57:29;4.67;4.67;3.67
55449;PMS5003;41318;58.724;50.180;2023-04-03T16:00:00;4.67;4.67;4.00
55449;PMS5003;41318;58.724;50.180;2023-04-03T16:02:31;6.00;6.00;5.00
55449;PMS5003;41318;58.724;50.180;2023-04-03T16:05:03;6.33;6.33;4.33
55449;PMS5003;41318;58.724;50.180;2023-04-03T16:07:34;5.00;5.00;4.50
55449;PMS5003;41318;58.724;50.180;2023-04-03T16:10:07;7.00;7.00;5.25
55449;PMS5003;41318;58.724;50.180;2023-04-03T16:12:39;5.25;5.25;4.50
55449;PMS5003;41318;58.724;50.180;2023-04-03T16:15:10;6.00;6.00;5.00
55449;PMS5003;41318;58.724;50.180;2023-04-03T16:17:41;5.00;5.00;5.00
55449;PMS5003;41318;58.724;50.180;2023-04-03T16:20:12;6.50;6.00;5.25